BUT weather

Public forecast

Using degrees Celsius for public forecast. Weather courtesy of forecast.io.

Closest aviation weather report (METAR) to Bathpalathang Airport

Closest report is Paro Airport, 71.1 nm (131.7 km) W. Retrieved 2020/08/09 12:30 UTC (1 hour ago):

VQPR 091230Z VRB02KT 9999 SCT040 OVC090 22/16 Q1015

Closest aviation forecast (TAF) to Bathpalathang Airport

Forecast is more than 12 hours old.

Closest forecast is Lokpriya Gopinath Bordoloi International Airport, 98.3 nm (182.0 km) SSE. Retrieved 2016/03/24 00:45 UTC (4 years ago):

TAF VEGT 242300Z 2500/2606 00000KT 2000 BR FEW020 BECMG 2503/2506 05008KT 4000 HZ BECMG 2506/2509 5000 HZ BECMG 2512/2514 00000KT 4000 HZ FEW020 SCT100 BECMG 2515/2518 2500 HZ BECMG 2603/2606 05008KT 4000 HZ FEW020=